createdAt,value
2022-12-08T00:01:13.000Z,1.54
2022-12-08T00:03:40.247Z,1.56
2022-12-08T00:06:27.104Z,1.53
2022-12-08T00:09:11.849Z,1.50
2022-12-08T00:11:39.491Z,1.63
2022-12-08T00:14:05.851Z,1.60
2022-12-08T00:16:32.278Z,1.57
2022-12-08T00:18:58.723Z,1.56
2022-12-08T00:21:25.103Z,1.62
2022-12-08T00:23:55.111Z,1.59
2022-12-08T00:26:21.650Z,1.65
2022-12-08T00:28:48.011Z,1.57
2022-12-08T00:31:14.477Z,1.67
2022-12-08T00:33:40.864Z,1.72
2022-12-08T00:36:08.973Z,1.59
2022-12-08T00:38:36.582Z,1.65
2022-12-08T00:41:04.113Z,1.65
2022-12-08T00:43:30.474Z,1.68
2022-12-08T00:45:56.878Z,1.70
2022-12-08T00:48:23.266Z,1.62
2022-12-08T00:50:49.619Z,1.64
2022-12-08T00:53:15.981Z,1.64
2022-12-08T00:55:43.192Z,1.73
2022-12-08T00:58:09.555Z,1.70
2022-12-08T01:00:35.932Z,1.70
2022-12-08T01:03:02.373Z,1.69
2022-12-08T01:05:28.814Z,1.70
2022-12-08T01:07:55.201Z,1.72
2022-12-08T01:10:21.651Z,1.69
2022-12-08T01:12:48.020Z,1.72
2022-12-08T01:15:14.385Z,1.71
2022-12-08T01:17:40.794Z,1.74
2022-12-08T01:20:07.831Z,1.75
2022-12-08T01:22:35.981Z,1.78
2022-12-08T01:25:03.048Z,1.81
2022-12-08T01:27:29.413Z,1.73
2022-12-08T01:29:55.771Z,1.72
2022-12-08T01:32:22.137Z,1.77
2022-12-08T01:34:48.487Z,1.73
2022-12-08T01:37:14.950Z,1.75
2022-12-08T01:39:41.376Z,1.76
2022-12-08T01:42:19.744Z,1.69
2022-12-08T01:44:49.997Z,1.72
2022-12-08T01:47:16.490Z,1.66
2022-12-08T01:49:42.964Z,1.63
2022-12-08T01:52:25.226Z,1.54
2022-12-08T01:54:59.206Z,1.48
2022-12-08T01:57:30.340Z,1.46
2022-12-08T02:00:06.412Z,1.41
2022-12-08T02:03:12.768Z,1.36
2022-12-08T02:05:41.098Z,1.39
2022-12-08T02:08:11.140Z,1.31
2022-12-08T02:10:40.413Z,1.33
2022-12-08T02:13:15.272Z,1.36
2022-12-08T02:16:12.502Z,1.34
2022-12-08T02:19:30.303Z,1.21
2022-12-08T02:22:00.102Z,1.20
2022-12-08T02:24:41.621Z,1.13
2022-12-08T02:27:13.859Z,1.08
2022-12-08T02:30:07.009Z,1.09
2022-12-08T02:33:01.457Z,1.04
2022-12-08T02:35:35.570Z,1.02
2022-12-08T02:38:29.832Z,0.97
2022-12-08T02:41:19.388Z,1.06
2022-12-08T02:43:51.272Z,0.94
2022-12-08T02:46:27.510Z,0.97
2022-12-08T02:48:57.051Z,0.95
2022-12-08T02:51:23.587Z,0.86
2022-12-08T02:53:50.526Z,0.84
2022-12-08T02:56:35.135Z,0.95
2022-12-08T02:59:16.894Z,0.89
2022-12-08T03:02:01.355Z,0.93
2022-12-08T03:05:09.344Z,0.92
2022-12-08T03:08:12.534Z,0.87
2022-12-08T03:11:03.819Z,0.88
2022-12-08T03:13:45.509Z,0.90
2022-12-08T03:16:18.445Z,0.82
2022-12-08T03:18:52.424Z,0.87
2022-12-08T03:21:21.639Z,0.79
2022-12-08T03:23:54.144Z,0.82
2022-12-08T03:26:46.366Z,0.79
2022-12-08T03:29:13.566Z,0.75
2022-12-08T03:31:44.348Z,0.79
2022-12-08T03:34:12.542Z,0.69
2022-12-08T03:36:38.958Z,0.75
2022-12-08T03:39:05.315Z,0.74
2022-12-08T03:41:31.691Z,0.69
2022-12-08T03:43:59.416Z,0.69
2022-12-08T03:48:54.385Z,0.77
2022-12-08T03:51:21.548Z,0.73
2022-12-08T03:53:48.918Z,0.73
2022-12-08T03:56:50.962Z,0.83
2022-12-08T03:59:17.361Z,0.77
2022-12-08T04:01:43.814Z,0.79
2022-12-08T04:04:10.283Z,0.85
2022-12-08T04:06:36.643Z,0.78
2022-12-08T04:09:03.714Z,0.94
2022-12-08T04:11:30.085Z,0.91
2022-12-08T04:13:56.471Z,0.89
2022-12-08T04:16:25.255Z,0.92
2022-12-08T04:18:52.406Z,0.88
2022-12-08T04:21:19.306Z,0.85
2022-12-08T04:23:46.390Z,0.93
2022-12-08T04:26:13.686Z,0.94
2022-12-08T04:28:40.141Z,0.98
2022-12-08T04:31:06.934Z,0.89
2022-12-08T04:33:35.071Z,1.00
2022-12-08T04:36:03.028Z,0.97
2022-12-08T04:38:29.490Z,1.01
2022-12-08T04:40:55.858Z,1.04
2022-12-08T04:43:22.351Z,1.05
2022-12-08T04:45:48.722Z,1.05
2022-12-08T04:48:15.543Z,1.13
2022-12-08T04:50:43.946Z,1.12
2022-12-08T04:53:11.310Z,1.10
2022-12-08T04:55:43.718Z,1.10
2022-12-08T04:58:14.933Z,1.09
2022-12-08T05:00:41.776Z,1.02
2022-12-08T05:03:08.375Z,1.06
2022-12-08T05:05:35.172Z,1.00
2022-12-08T05:08:01.663Z,1.01
2022-12-08T05:10:28.080Z,1.07
2022-12-08T05:12:54.512Z,0.99
2022-12-08T05:15:20.875Z,1.05
2022-12-08T05:17:47.227Z,1.11
2022-12-08T05:20:13.797Z,1.10
2022-12-08T05:22:40.178Z,1.12
2022-12-08T05:25:06.867Z,1.27
2022-12-08T05:27:33.280Z,1.25
2022-12-08T05:29:59.697Z,1.32
2022-12-08T05:32:26.078Z,1.32
2022-12-08T05:34:52.691Z,1.35
2022-12-08T05:37:19.170Z,1.31
2022-12-08T05:39:45.528Z,1.41
2022-12-08T05:42:11.887Z,1.38
2022-12-08T05:44:38.242Z,1.37
2022-12-08T05:47:04.721Z,1.33
2022-12-08T05:49:31.113Z,1.39
2022-12-08T05:51:57.450Z,1.30
2022-12-08T05:54:23.966Z,1.51
2022-12-08T05:56:50.357Z,1.47
2022-12-08T05:59:16.735Z,1.35
2022-12-08T06:01:43.157Z,1.36
2022-12-08T06:04:10.060Z,1.29
2022-12-08T06:06:36.918Z,1.31
2022-12-08T06:09:04.977Z,1.22
2022-12-08T06:11:32.336Z,1.29
2022-12-08T06:13:59.592Z,1.28
2022-12-08T06:16:27.825Z,1.23
2022-12-08T06:18:54.942Z,1.38
2022-12-08T06:21:21.539Z,1.45
2022-12-08T06:23:50.213Z,1.35
2022-12-08T06:26:17.257Z,1.18
2022-12-08T06:28:44.434Z,1.21
2022-12-08T06:31:18.523Z,1.26
2022-12-08T06:33:45.412Z,1.23
2022-12-08T06:36:14.018Z,1.27
2022-12-08T06:38:43.522Z,1.17
2022-12-08T06:41:11.974Z,1.26
2022-12-08T06:43:38.422Z,1.22
2022-12-08T06:46:11.343Z,1.23
2022-12-08T06:48:37.941Z,1.16
2022-12-08T06:51:13.102Z,1.18
2022-12-08T06:53:40.492Z,1.17
2022-12-08T06:56:08.046Z,1.17
2022-12-08T06:58:35.368Z,1.23
2022-12-08T07:01:07.330Z,1.22
2022-12-08T07:03:33.850Z,1.28
2022-12-08T07:06:03.766Z,1.22
2022-12-08T07:08:31.521Z,1.19
2022-12-08T07:10:57.940Z,1.17
2022-12-08T07:13:24.391Z,1.19
2022-12-08T07:15:50.940Z,1.28
2022-12-08T07:18:17.384Z,1.23
2022-12-08T07:20:43.746Z,1.35
2022-12-08T07:23:10.115Z,1.30
2022-12-08T07:25:36.474Z,1.30
2022-12-08T07:28:08.220Z,1.31
2022-12-08T07:30:34.661Z,1.28
2022-12-08T07:33:02.679Z,1.23
2022-12-08T07:35:29.056Z,1.30
2022-12-08T07:37:55.436Z,1.28
2022-12-08T07:40:21.787Z,1.34
2022-12-08T07:42:48.124Z,1.26
2022-12-08T07:45:14.526Z,1.26
2022-12-08T07:47:40.863Z,1.26
2022-12-08T07:50:08.135Z,1.32
2022-12-08T07:52:35.525Z,1.25
2022-12-08T07:55:02.147Z,1.20
2022-12-08T07:57:28.505Z,1.22
2022-12-08T07:59:54.851Z,1.26
2022-12-08T08:02:24.925Z,1.20
2022-12-08T08:04:52.769Z,1.26
2022-12-08T08:07:19.386Z,1.27
2022-12-08T08:09:45.828Z,1.27
2022-12-08T08:12:30.617Z,1.31
2022-12-08T08:14:58.203Z,1.35
2022-12-08T08:17:24.745Z,1.35
2022-12-08T08:19:51.192Z,1.34
2022-12-08T08:22:17.547Z,1.43
2022-12-08T08:24:45.195Z,1.44
2022-12-08T08:27:11.947Z,1.38
2022-12-08T08:29:38.294Z,1.40
2022-12-08T08:32:04.752Z,1.46
2022-12-08T08:34:31.118Z,1.48
2022-12-08T08:36:57.536Z,1.50
2022-12-08T08:39:23.957Z,1.42
2022-12-08T08:41:50.334Z,1.58
2022-12-08T08:44:16.717Z,1.55
2022-12-08T08:46:43.342Z,1.63
2022-12-08T08:49:09.889Z,1.54
2022-12-08T08:51:36.308Z,1.58
2022-12-08T08:54:02.862Z,1.64
2022-12-08T08:56:29.290Z,1.67
2022-12-08T08:58:55.701Z,1.66
2022-12-08T09:01:26.860Z,1.68
2022-12-08T09:03:53.833Z,1.68
2022-12-08T09:06:21.054Z,1.63
2022-12-08T09:08:47.852Z,1.79
2022-12-08T09:11:14.423Z,1.74
2022-12-08T09:13:40.839Z,1.74
2022-12-08T09:16:08.543Z,1.68
2022-12-08T09:18:35.324Z,1.82
2022-12-08T09:21:11.473Z,1.71
2022-12-08T09:23:37.811Z,1.64
2022-12-08T09:26:05.179Z,1.72
2022-12-08T09:28:32.703Z,1.83
2022-12-08T09:30:59.636Z,1.71
2022-12-08T09:33:26.098Z,1.80
2022-12-08T09:35:52.541Z,1.76
2022-12-08T09:38:18.903Z,1.65
2022-12-08T09:40:53.586Z,1.76
2022-12-08T09:43:37.337Z,1.77
2022-12-08T09:46:13.405Z,1.72
2022-12-08T09:49:01.872Z,1.77
2022-12-08T09:51:35.569Z,1.74
2022-12-08T09:54:12.561Z,1.84
2022-12-08T09:56:39.613Z,1.72
2022-12-08T09:59:08.965Z,1.74
2022-12-08T10:01:41.507Z,1.82
2022-12-08T10:04:28.457Z,1.78
2022-12-08T10:07:36.849Z,1.98
2022-12-08T10:10:22.314Z,2.00
2022-12-08T10:12:57.378Z,2.03
2022-12-08T10:15:38.358Z,2.09
2022-12-08T10:18:12.749Z,2.08
2022-12-08T10:20:42.663Z,2.14
2022-12-08T10:23:37.269Z,2.16
2022-12-08T10:26:06.807Z,2.16
2022-12-08T10:28:36.020Z,2.16
2022-12-08T10:31:05.533Z,2.21
2022-12-08T10:33:33.520Z,2.32
2022-12-08T10:36:03.060Z,2.20
2022-12-08T10:38:34.778Z,2.29
2022-12-08T10:41:13.663Z,2.18
2022-12-08T10:43:56.271Z,2.29
2022-12-08T10:46:27.424Z,2.29
2022-12-08T10:49:11.906Z,2.24
2022-12-08T10:51:41.062Z,2.22
2022-12-08T10:54:33.770Z,2.31
2022-12-08T10:57:00.163Z,2.39
2022-12-08T10:59:26.959Z,2.38
2022-12-08T11:01:56.191Z,2.36
2022-12-08T11:04:32.194Z,2.42
2022-12-08T11:06:58.625Z,2.47
2022-12-08T11:09:46.758Z,2.56
2022-12-08T11:12:15.181Z,2.44
2022-12-08T11:14:44.249Z,2.47
2022-12-08T11:17:22.150Z,2.47
2022-12-08T11:20:09.114Z,2.49
2022-12-08T11:22:44.577Z,2.47
2022-12-08T11:25:20.718Z,2.55
2022-12-08T11:27:49.840Z,2.43
2022-12-08T11:30:26.327Z,2.47
2022-12-08T11:33:05.276Z,2.49
2022-12-08T11:35:40.574Z,2.47
2022-12-08T11:38:23.834Z,2.48
2022-12-08T11:40:59.242Z,2.54
2022-12-08T11:43:34.900Z,2.56
2022-12-08T11:46:13.287Z,2.54
2022-12-08T11:49:06.961Z,2.52
2022-12-08T11:51:52.965Z,2.42
2022-12-08T11:54:36.649Z,2.50
2022-12-08T11:57:05.851Z,2.41
2022-12-08T11:59:41.611Z,2.43
2022-12-08T12:02:15.920Z,2.50
2022-12-08T12:04:52.565Z,2.51
2022-12-08T12:07:40.644Z,2.46
2022-12-08T12:10:40.914Z,2.41
2022-12-08T12:13:27.417Z,2.40
2022-12-08T12:16:43.287Z,2.34
2022-12-08T12:19:16.657Z,2.40
2022-12-08T12:21:47.990Z,2.42
2022-12-08T12:24:35.975Z,2.40
2022-12-08T12:27:18.496Z,2.47
2022-12-08T12:29:52.223Z,2.41
2022-12-08T12:32:22.002Z,2.33
2022-12-08T12:34:55.416Z,2.33
2022-12-08T12:37:25.583Z,2.39
2022-12-08T12:39:51.900Z,2.42
2022-12-08T12:42:40.252Z,2.40
2022-12-08T12:45:21.754Z,2.43
2022-12-08T12:47:57.805Z,2.57
2022-12-08T12:50:33.567Z,2.60
2022-12-08T12:53:05.930Z,2.83
2022-12-08T12:55:58.917Z,2.85
2022-12-08T12:58:28.033Z,2.65
2022-12-08T13:01:12.587Z,2.65
2022-12-08T13:03:42.060Z,2.68
2022-12-08T13:06:14.911Z,2.62
2022-12-08T13:08:51.753Z,2.68
2022-12-08T13:11:18.526Z,2.63
2022-12-08T13:13:57.887Z,2.70
2022-12-08T13:16:26.861Z,2.81
2022-12-08T13:18:58.776Z,2.59
2022-12-08T13:21:33.050Z,2.67
2022-12-08T13:24:17.579Z,2.61
2022-12-08T13:26:46.039Z,2.65
2022-12-08T13:29:25.343Z,2.64
2022-12-08T13:31:57.101Z,2.71
2022-12-08T13:34:41.634Z,2.57
2022-12-08T13:37:10.699Z,2.54
2022-12-08T13:39:40.150Z,2.56
2022-12-08T13:42:12.580Z,2.49
2022-12-08T13:45:21.349Z,2.44
2022-12-08T13:48:25.596Z,2.30
2022-12-08T13:57:14.615Z,2.30
2022-12-08T13:59:45.437Z,2.29
2022-12-08T14:02:27.189Z,2.27
2022-12-08T14:05:17.481Z,2.22
2022-12-08T14:07:42.700Z,2.31
2022-12-08T14:10:22.397Z,2.27
2022-12-08T14:12:55.336Z,2.19
2022-12-08T14:15:22.477Z,2.24
2022-12-08T14:17:56.429Z,2.15
2022-12-08T14:20:27.578Z,2.24
2022-12-08T14:22:55.089Z,2.11
2022-12-08T14:25:22.954Z,2.04
2022-12-08T14:27:50.280Z,2.11
2022-12-08T14:30:24.135Z,2.18
2022-12-08T14:32:58.878Z,2.15
2022-12-08T14:35:27.703Z,2.12
2022-12-08T14:38:14.514Z,2.12
2022-12-08T14:40:45.938Z,2.13
2022-12-08T14:43:20.494Z,2.06
2022-12-08T14:45:50.567Z,2.16
2022-12-08T14:48:23.051Z,2.20
2022-12-08T14:51:01.740Z,2.13
2022-12-08T14:53:42.078Z,2.04
2022-12-08T14:56:17.810Z,2.14
2022-12-08T14:58:44.173Z,2.21
2022-12-08T15:01:16.965Z,2.28
2022-12-08T15:03:50.394Z,2.21
2022-12-08T15:06:20.718Z,2.26
2022-12-08T15:08:54.943Z,2.11
2022-12-08T15:11:21.316Z,2.08
2022-12-08T15:13:50.212Z,2.09
2022-12-08T15:16:39.080Z,2.10
2022-12-08T15:19:16.968Z,1.88
2022-12-08T15:21:45.738Z,1.82
2022-12-08T15:24:13.883Z,1.69
2022-12-08T15:26:48.764Z,1.76
2022-12-08T15:29:25.242Z,1.80
2022-12-08T15:31:53.664Z,1.64
2022-12-08T15:34:20.859Z,1.68
2022-12-08T15:36:49.759Z,1.67
2022-12-08T15:39:45.519Z,1.60
2022-12-08T15:42:13.051Z,1.57
2022-12-08T15:44:39.462Z,1.57
2022-12-08T15:47:11.707Z,1.50
2022-12-08T15:49:38.813Z,1.53
2022-12-08T15:52:12.657Z,1.51
2022-12-08T15:54:39.142Z,1.47
2022-12-08T15:57:43.809Z,1.46
2022-12-08T15:59:53.021Z,1.50
2022-12-08T16:02:22.569Z,1.47
2022-12-08T16:07:38.030Z,1.38
2022-12-08T16:10:06.626Z,1.43
2022-12-08T16:15:57.134Z,1.33
2022-12-08T16:18:29.930Z,1.33
2022-12-08T16:23:44.707Z,1.26
2022-12-08T16:29:07.085Z,1.22
2022-12-08T16:31:33.651Z,1.24
2022-12-08T16:34:00.200Z,1.28
2022-12-08T16:36:26.534Z,1.24
2022-12-08T16:38:52.921Z,1.21
2022-12-08T16:41:37.699Z,1.14
2022-12-08T16:44:06.127Z,1.17
2022-12-08T16:46:33.182Z,1.07
2022-12-08T16:48:59.639Z,1.15
2022-12-08T16:51:27.237Z,1.18
2022-12-08T16:53:55.092Z,1.19
2022-12-08T16:56:26.219Z,1.16
2022-12-08T16:58:57.070Z,1.19
2022-12-08T17:01:24.710Z,1.19
2022-12-08T17:04:07.515Z,1.19
2022-12-08T17:06:37.508Z,1.08
2022-12-08T17:09:04.109Z,1.10
2022-12-08T17:11:36.243Z,1.01
2022-12-08T17:14:09.045Z,1.07
2022-12-08T17:16:35.620Z,0.98
2022-12-08T17:19:02.100Z,1.04
2022-12-08T17:21:28.440Z,0.98
2022-12-08T17:23:54.815Z,1.02
2022-12-08T17:26:21.371Z,0.98
2022-12-08T17:29:03.002Z,0.97
2022-12-08T17:31:31.740Z,0.90
2022-12-08T17:34:04.309Z,0.96
2022-12-08T17:36:31.327Z,0.92
2022-12-08T17:38:59.701Z,0.90
2022-12-08T17:41:26.095Z,0.87
2022-12-08T17:43:52.619Z,0.95
2022-12-08T17:46:20.023Z,0.87
2022-12-08T17:48:46.807Z,0.89
2022-12-08T17:51:13.664Z,0.92
2022-12-08T17:53:40.706Z,0.87
2022-12-08T17:56:15.093Z,0.85
2022-12-08T17:58:41.616Z,0.86
2022-12-08T18:01:11.253Z,0.93
2022-12-08T18:03:38.621Z,0.89
2022-12-08T18:06:10.214Z,0.86
2022-12-08T18:08:37.114Z,0.83
2022-12-08T18:11:04.043Z,0.80
2022-12-08T18:13:30.543Z,0.77
2022-12-08T18:15:56.923Z,0.79
2022-12-08T18:18:23.275Z,0.79
2022-12-08T18:20:50.010Z,0.69
2022-12-08T18:23:17.575Z,0.75
2022-12-08T18:25:44.383Z,0.78
2022-12-08T18:28:10.784Z,0.68
2022-12-08T18:30:37.385Z,0.81
2022-12-08T18:33:04.824Z,0.80
2022-12-08T18:35:31.214Z,0.82
2022-12-08T18:37:58.389Z,0.93
2022-12-08T18:40:24.745Z,0.90
2022-12-08T18:42:51.072Z,0.83
2022-12-08T18:45:22.585Z,0.90
2022-12-08T18:47:50.997Z,0.84
2022-12-08T18:50:17.818Z,0.91
2022-12-08T18:52:45.725Z,0.80
2022-12-08T18:55:12.245Z,0.82
2022-12-08T18:57:41.461Z,0.85
2022-12-08T19:00:11.841Z,0.75
2022-12-08T19:02:38.795Z,0.69
2022-12-08T19:05:06.669Z,0.66
2022-12-08T19:07:33.083Z,0.73
2022-12-08T19:09:59.433Z,0.64
2022-12-08T19:12:26.203Z,0.67
2022-12-08T19:14:52.746Z,0.67
2022-12-08T19:17:19.319Z,0.69
2022-12-08T19:19:45.657Z,0.77
2022-12-08T19:22:12.312Z,0.67
2022-12-08T19:24:38.710Z,0.71
2022-12-08T19:27:05.735Z,0.69
2022-12-08T19:29:32.184Z,0.71
2022-12-08T19:32:00.175Z,0.74
2022-12-08T19:34:26.547Z,0.70
2022-12-08T19:36:53.285Z,0.83
2022-12-08T19:39:41.355Z,0.87
2022-12-08T19:42:36.538Z,0.74
2022-12-08T19:45:22.082Z,0.76
2022-12-08T19:47:48.657Z,0.70
2022-12-08T19:50:34.885Z,0.61
2022-12-08T19:53:02.758Z,0.60
2022-12-08T19:55:29.416Z,0.60
2022-12-08T19:57:56.992Z,0.61
2022-12-08T20:00:23.977Z,0.66
2022-12-08T20:02:50.514Z,0.62
2022-12-08T20:05:17.191Z,0.67
2022-12-08T20:07:43.713Z,0.67
2022-12-08T20:10:23.537Z,0.55
2022-12-08T20:12:49.968Z,0.61
2022-12-08T20:15:16.382Z,0.70
2022-12-08T20:17:43.076Z,0.65
2022-12-08T20:20:12.030Z,0.60
2022-12-08T20:22:38.552Z,0.67
2022-12-08T20:25:05.236Z,0.59
2022-12-08T20:27:32.790Z,0.64
2022-12-08T20:29:59.195Z,0.61
2022-12-08T20:32:25.557Z,0.64
2022-12-08T20:34:51.926Z,0.66
2022-12-08T20:37:19.506Z,0.70
2022-12-08T20:39:45.858Z,0.63
2022-12-08T20:42:13.570Z,0.57
2022-12-08T20:44:44.057Z,0.59
2022-12-08T20:47:11.993Z,0.55
2022-12-08T20:49:38.657Z,0.58
2022-12-08T20:52:05.297Z,0.45
2022-12-08T20:54:31.876Z,0.54
2022-12-08T20:56:58.241Z,0.55
2022-12-08T20:59:26.349Z,0.49
2022-12-08T21:01:53.548Z,0.51
2022-12-08T21:04:20.657Z,0.59
2022-12-08T21:06:47.227Z,0.55
2022-12-08T21:09:13.926Z,0.57
2022-12-08T21:11:40.453Z,0.54
2022-12-08T21:14:06.876Z,0.58
2022-12-08T21:16:33.402Z,0.58
2022-12-08T21:18:59.792Z,0.56
2022-12-08T21:21:26.279Z,0.69
2022-12-08T21:23:53.327Z,0.83
2022-12-08T21:26:23.267Z,0.84
2022-12-08T21:28:49.752Z,0.85
2022-12-08T21:31:18.943Z,0.87
2022-12-08T21:33:45.812Z,0.83
2022-12-08T21:36:18.056Z,0.76
2022-12-08T21:38:46.496Z,0.68
2022-12-08T21:41:36.653Z,0.65
2022-12-08T21:44:04.498Z,0.57
2022-12-08T21:46:31.264Z,0.57
2022-12-08T21:48:57.888Z,0.47
2022-12-08T21:51:24.352Z,0.51
2022-12-08T21:53:50.839Z,0.43
2022-12-08T21:56:17.796Z,0.39
2022-12-08T21:58:44.317Z,0.45
2022-12-08T22:01:12.451Z,0.40
2022-12-08T22:03:39.897Z,0.42
2022-12-08T22:06:08.192Z,0.46
2022-12-08T22:08:34.998Z,0.47
2022-12-08T22:11:01.569Z,0.49
2022-12-08T22:13:28.385Z,0.40
2022-12-08T22:15:59.542Z,0.41
2022-12-08T22:18:26.380Z,0.34
2022-12-08T22:20:53.306Z,0.35
2022-12-08T22:23:20.633Z,0.34
2022-12-08T22:26:00.250Z,0.29
2022-12-08T22:28:28.095Z,0.31
2022-12-08T22:30:54.811Z,0.30
2022-12-08T22:33:21.877Z,0.37
2022-12-08T22:35:56.999Z,0.33
2022-12-08T22:38:23.594Z,0.34
2022-12-08T22:40:50.265Z,0.26
2022-12-08T22:43:17.307Z,0.36
2022-12-08T22:45:44.268Z,0.36
2022-12-08T22:48:10.969Z,0.35
2022-12-08T22:50:37.773Z,0.34
2022-12-08T22:53:04.869Z,0.58
2022-12-08T22:55:31.430Z,0.46
2022-12-08T22:57:58.173Z,0.36
2022-12-08T23:00:24.601Z,0.31
2022-12-08T23:02:51.227Z,0.25
2022-12-08T23:05:17.984Z,0.26
2022-12-08T23:07:44.631Z,0.25
2022-12-08T23:10:11.698Z,0.27
2022-12-08T23:12:38.467Z,0.29
2022-12-08T23:15:05.589Z,0.35
2022-12-08T23:17:32.033Z,0.36
2022-12-08T23:19:58.480Z,0.42
2022-12-08T23:22:24.971Z,0.35
2022-12-08T23:24:51.441Z,0.32
2022-12-08T23:27:17.844Z,0.27
2022-12-08T23:29:44.319Z,0.28
2022-12-08T23:32:10.783Z,0.31
2022-12-08T23:34:37.540Z,0.26
2022-12-08T23:37:03.907Z,0.33
2022-12-08T23:39:30.312Z,0.29
2022-12-08T23:41:56.844Z,0.31
2022-12-08T23:44:23.391Z,0.25
2022-12-08T23:46:49.857Z,0.30
2022-12-08T23:49:16.518Z,0.25
2022-12-08T23:51:42.887Z,0.30
2022-12-08T23:54:09.334Z,0.27
2022-12-08T23:56:35.868Z,0.18
2022-12-08T23:59:02.356Z,0.21
